Aeroporto :
LOGIN :

Iscrizione | Disclaimer

   EN    FR    IT 

 










Sommario :    VFR   VFR Marginale   IFR   IFR Intensivo   IFR Molto Intensivo
Visibilità : 
Base nubi : 
>= 8 km
>= 3000ft
5 / 8 km
1000 / 3000 ft
1500m / 5 km
500 / 1000 ft
800 / 1500m
200 / 500 ft
< 800m
< 200 ft
Simboli :   Temporali  Nebbia  Neve Forte  Precipitazioni Forti  Vento > 20 kt
SIGMETs :   Varie  Temporali  Ghiacco  Turbolenza  Onda orograficha  Ceneri Vulcaniche






- Altitudine del aeroporto : 1090 ft
- Codice IATA : CFE


LFLC - Clermont-Ferrand Auvergne

ULTIMO METAR :
  • 192330Z AUTO VRB01KT 9999 OVC033 07/04 Q1026 NOSIG

METARs OBSOLETI :
  • 192300Z AUTO VRB03KT 9999 BKN036 07/04 Q1026 NOSIG
  • 192230Z AUTO 13003KT 090V160 9999 SCT034 06/03 Q1026 NOSIG
  • 192200Z AUTO 13003KT 9999 SCT033 BKN110 07/04 Q1027 NOSIG
  • 192130Z AUTO 16003KT 9999 SCT034 BKN042 BKN049 07/04 Q1027 NOSIG

TAF TAF LFLC
Valido dal 19 a 21 ore il 20 a 21 ore UTC


192000Z 1921/2021 18006KT 9999 BKN030
BECMG 2004/2006 CAVOK
PROB30
TEMPO 2004/2007 3000 BR
BECMG 2013/2015 25008KT
TEMPO 2018/2021 25012G25KT
ATIS : +33 4 73 62 74 38



MetMap, La meteo Aeronautica in un colpo d'occhio ! - Copyright ORBIFLY Dicembre 2007 - Disclaimer

ORBIFLY MET'MAP TEAM :

Programmazione e sviluppo : Alexandra Zaïnal
Concezione : Baudouin d'Aumeries
Aiuto per la programmazione : Marc-Olivier Méhu
Supporto tecnico e logistico : Manuel Goepfert
Aiuto per la traduzione : Arnaldo La Scala

Contatto : metmap@orbifly.com




FONTI E CREDITI :

   NOAA